Kezdőlap
METAR-TAF:

METAR-TAF

Repülőterek :

Kasane, Botswana

földrajzi szélesség: 17-49S, földrajzi hosszúság: 025-09E, magasság: 968 m

Jelenlegi meteorológiai megfigyelések

A jelentés 23 perccel ezelõtt készült, 06:00 UTC
Keleti szél 5 kt
Hőmérséklet 17°C
Páratartalom 48%
Légköri nyomás 1023 hPa
Látótávolság 10 km, vagy több
felhőtlen 1500 m magasságban, és nincs gomolyfelhõ

METAR: FBKE 160600Z 08005KT CAVOK 17/06 Q1023

Idő: 08:23 (06:23 UTC)

Előrejelzés

A jelentés 18 órával és 23 perccel ezelõtt készült, 12:00 UTC
Az előrejelzés 15-én 15 óra UTC és 15-én 24 óra UTC között érvényes
Keleti szél 5 kt
Látótávolság 10 km, vagy több
felhőtlen 1500 m magasságban, és nincs gomolyfelhõ

TAF: FBKE 151200Z 1515/1524 10005KT CAVOK

Meteorológiai megfigyelések és előrejelzések több, mint 4000 repülőtéren (METAR és TAF jelentéseket).

A térképen piros és sárga pontok jelzik az elérhető meteorológiai állomásokat.

Mozgassa az egeret a pont fölött, hogy megjelenjen az állomás neve.

Azután kattintson az időjárási megfigyelések és előrejelzések megtekintéséhez.

A térkép megváltoztatása: kattintson a fekete keresztel jelölt zöld gombra ráközelítéshez, a vonallal jelölt zöld gombra távolításhoz, vagy a zöld nyilakra a szomszédos térképek eléréséhez.


METAR-TAF: